createdAt,value
2018-04-09T00:01:26.973Z,99909.95
2018-04-09T00:03:54.968Z,99908.70
2018-04-09T00:06:23.213Z,99904.16
2018-04-09T00:08:51.216Z,99898.06
2018-04-09T00:11:19.240Z,99907.12
2018-04-09T00:13:47.256Z,99905.84
2018-04-09T00:16:15.281Z,99904.44
2018-04-09T00:18:43.540Z,99912.22
2018-04-09T00:21:11.572Z,99908.95
2018-04-09T00:23:39.568Z,99902.17
2018-04-09T00:26:07.589Z,99862.67
2018-04-09T00:28:35.593Z,99905.03
2018-04-09T00:31:03.614Z,99902.03
2018-04-09T00:33:31.650Z,99897.95
2018-04-09T00:35:59.652Z,99899.63
2018-04-09T00:38:27.674Z,99896.73
2018-04-09T00:40:55.674Z,99897.39
2018-04-09T00:43:23.688Z,99891.83
2018-04-09T00:45:51.704Z,99896.45
2018-04-09T00:48:19.728Z,99899.55
2018-04-09T00:50:47.732Z,99894.42
2018-04-09T00:53:15.968Z,99892.50
2018-04-09T00:55:44.013Z,99894.16
2018-04-09T00:58:12.048Z,99889.58
2018-04-09T01:00:40.100Z,99896.13
2018-04-09T01:03:08.128Z,99892.98
2018-04-09T01:05:36.129Z,99898.47
2018-04-09T01:08:04.164Z,99896.59
2018-04-09T01:10:32.833Z,99896.14
2018-04-09T01:13:00.826Z,99899.15
2018-04-09T01:15:28.840Z,99900.36
2018-04-09T01:17:56.849Z,99895.27
2018-04-09T01:20:24.865Z,99903.51
2018-04-09T01:22:52.904Z,99901.11
2018-04-09T01:25:20.914Z,99899.61
2018-04-09T01:27:48.923Z,99890.36
2018-04-09T01:30:16.928Z,99892.62
2018-04-09T01:32:44.945Z,99896.61
2018-04-09T01:35:13.146Z,99892.14
2018-04-09T01:37:41.526Z,99893.27
2018-04-09T01:40:09.636Z,99891.70
2018-04-09T01:42:37.793Z,99886.28
2018-04-09T01:45:06.425Z,99884.20
2018-04-09T01:47:34.409Z,99887.05
2018-04-09T01:50:06.465Z,99893.11
2018-04-09T01:52:35.137Z,99895.67
2018-04-09T01:55:06.246Z,99896.66
2018-04-09T01:57:34.276Z,99896.10
2018-04-09T02:00:06.512Z,99905.01
2018-04-09T02:02:34.541Z,99899.52
2018-04-09T02:05:08.269Z,99897.61
2018-04-09T02:07:36.293Z,99885.56
2018-04-09T02:10:07.769Z,99898.92
2018-04-09T02:12:35.802Z,99898.68
2018-04-09T02:15:08.540Z,99897.61
2018-04-09T02:17:36.991Z,99883.25
2018-04-09T02:20:07.732Z,99889.06
2018-04-09T02:22:35.773Z,99892.39
2018-04-09T02:25:07.887Z,99892.63
2018-04-09T02:27:36.335Z,99897.20
2018-04-09T02:30:07.643Z,99904.77
2018-04-09T02:32:35.654Z,99889.64
2018-04-09T02:35:07.497Z,99888.41
2018-04-09T02:37:36.293Z,99890.48
2018-04-09T02:40:07.938Z,99897.36
2018-04-09T02:42:35.958Z,99894.68
2018-04-09T02:45:07.689Z,99898.84
2018-04-09T02:47:35.742Z,99893.22
2018-04-09T02:50:15.578Z,99889.08
2018-04-09T02:52:43.593Z,99892.88
2018-04-09T02:55:11.613Z,99888.64
2018-04-09T02:57:39.954Z,99885.91
2018-04-09T03:00:07.993Z,99877.02
2018-04-09T03:02:35.991Z,99884.30
2018-04-09T03:05:06.928Z,99888.31
2018-04-09T03:07:35.450Z,99883.74
2018-04-09T03:10:07.418Z,99883.27
2018-04-09T03:12:35.412Z,99880.22
2018-04-09T03:15:06.428Z,99870.92
2018-04-09T03:17:34.645Z,99882.48
2018-04-09T03:20:05.988Z,99880.73
2018-04-09T03:22:33.997Z,99879.73
2018-04-09T03:25:08.511Z,99885.13
2018-04-09T03:27:36.549Z,99884.63
2018-04-09T03:30:06.246Z,99891.34
2018-04-09T03:32:34.317Z,99894.05
2018-04-09T03:35:09.446Z,99883.58
2018-04-09T03:37:37.473Z,99887.34
2018-04-09T03:40:06.383Z,99890.08
2018-04-09T03:42:34.404Z,99891.58
2018-04-09T03:45:06.565Z,99893.48
2018-04-09T03:47:34.603Z,99900.11
2018-04-09T03:50:05.766Z,99902.31
2018-04-09T03:52:33.857Z,99898.94
2018-04-09T03:57:35.224Z,99884.88
2018-04-09T04:00:06.559Z,99898.16
2018-04-09T04:02:34.591Z,99897.73
2018-04-09T04:05:09.098Z,99896.39
2018-04-09T04:07:37.141Z,99898.82
2018-04-09T04:10:07.198Z,99893.52
2018-04-09T04:12:36.054Z,99895.58
2018-04-09T04:15:07.560Z,99898.66
2018-04-09T04:17:47.902Z,99891.68
2018-04-09T04:20:27.616Z,99888.55
2018-04-09T04:22:55.661Z,99888.92
2018-04-09T04:25:23.665Z,99888.91
2018-04-09T04:27:51.721Z,99883.84
2018-04-09T04:30:20.792Z,99881.08
2018-04-09T04:32:48.841Z,99875.61
2018-04-09T04:35:16.864Z,99872.86
2018-04-09T04:37:44.877Z,99877.27
2018-04-09T04:40:12.885Z,99879.44
2018-04-09T04:42:40.897Z,99879.09
2018-04-09T04:45:08.923Z,99881.84
2018-04-09T04:47:36.920Z,99874.71
2018-04-09T04:50:05.981Z,99872.59
2018-04-09T04:52:34.012Z,99863.34
2018-04-09T04:55:05.224Z,99878.19
2018-04-09T04:57:33.293Z,99875.34
2018-04-09T05:00:07.709Z,99877.92
2018-04-09T05:02:35.885Z,99882.72
2018-04-09T05:05:05.526Z,99883.51
2018-04-09T05:07:33.773Z,99885.45
2018-04-09T05:10:04.945Z,99882.84
2018-04-09T05:12:33.319Z,99881.91
2018-04-09T05:15:07.608Z,99880.17
2018-04-09T05:17:35.913Z,99851.97
2018-04-09T05:20:08.712Z,99879.50
2018-04-09T05:22:36.788Z,99886.28
2018-04-09T05:25:05.561Z,99884.64
2018-04-09T05:27:33.593Z,99881.34
2018-04-09T05:30:08.039Z,99886.91
2018-04-09T05:32:36.069Z,99880.51
2018-04-09T05:35:07.548Z,99886.99
2018-04-09T05:37:36.180Z,99886.33
2018-04-09T05:40:05.581Z,99879.13
2018-04-09T05:42:33.649Z,99878.78
2018-04-09T05:45:05.715Z,99879.70
2018-04-09T05:47:33.841Z,99880.10
2018-04-09T05:50:05.421Z,99872.97
2018-04-09T05:52:33.657Z,99874.81
2018-04-09T05:55:05.023Z,99874.06
2018-04-09T05:57:33.070Z,99865.50
2018-04-09T06:00:04.847Z,99887.91
2018-04-09T06:02:33.110Z,99882.09
2018-04-09T06:05:07.905Z,99880.77
2018-04-09T06:07:35.916Z,99880.09
2018-04-09T06:10:05.883Z,99889.91
2018-04-09T06:12:33.958Z,99892.22
2018-04-09T06:15:04.981Z,99889.47
2018-04-09T06:17:33.269Z,99888.89
2018-04-09T06:20:07.792Z,99894.89
2018-04-09T06:22:35.805Z,99898.42
2018-04-09T06:25:07.560Z,99897.28
2018-04-09T06:27:35.560Z,99899.75
2018-04-09T06:30:06.896Z,99899.48
2018-04-09T06:32:34.900Z,99905.56
2018-04-09T06:35:06.475Z,99911.91
2018-04-09T06:37:34.471Z,99913.33
2018-04-09T06:40:05.936Z,99918.30
2018-04-09T06:42:34.016Z,99911.64
2018-04-09T06:45:05.035Z,99923.22
2018-04-09T06:47:33.044Z,99917.65
2018-04-09T06:50:04.425Z,99921.98
2018-04-09T06:52:32.493Z,99925.17
2018-04-09T06:55:05.349Z,99919.23
2018-04-09T06:57:33.323Z,99924.17
2018-04-09T07:00:07.841Z,99924.02
2018-04-09T07:02:36.156Z,99926.30
2018-04-09T07:05:06.156Z,99928.50
2018-04-09T07:07:34.216Z,99926.23
2018-04-09T07:10:05.682Z,99923.82
2018-04-09T07:12:34.129Z,99925.16
2018-04-09T07:15:05.293Z,99930.84
2018-04-09T07:17:33.661Z,99926.88
2018-04-09T07:20:08.044Z,99924.14
2018-04-09T07:22:36.151Z,99922.30
2018-04-09T07:25:07.605Z,99916.39
2018-04-09T07:27:35.637Z,99920.72
2018-04-09T07:30:07.239Z,99908.30
2018-04-09T07:32:35.620Z,99918.67
2018-04-09T07:35:06.660Z,99923.13
2018-04-09T07:37:35.213Z,99923.69
2018-04-09T07:40:07.103Z,99916.61
2018-04-09T07:42:35.120Z,99921.68
2018-04-09T07:45:06.876Z,99923.38
2018-04-09T07:47:35.209Z,99916.89
2018-04-09T07:50:05.664Z,99913.41
2018-04-09T07:52:33.694Z,99905.05
2018-04-09T07:55:08.101Z,99901.77
2018-04-09T07:57:36.115Z,99904.31
2018-04-09T08:00:07.448Z,99892.08
2018-04-09T08:02:35.504Z,99895.75
2018-04-09T08:05:07.245Z,99893.73
2018-04-09T08:07:35.279Z,99893.44
2018-04-09T08:10:05.961Z,99885.29
2018-04-09T08:12:34.000Z,99879.67
2018-04-09T08:15:08.939Z,99884.56
2018-04-09T08:17:37.335Z,99880.37
2018-04-09T08:20:06.664Z,99878.75
2018-04-09T08:22:34.731Z,99882.34
2018-04-09T08:25:05.767Z,99887.05
2018-04-09T08:27:33.853Z,99892.25
2018-04-09T08:30:05.265Z,99896.30
2018-04-09T08:32:33.481Z,99888.25
2018-04-09T08:35:04.662Z,99879.00
2018-04-09T08:37:32.728Z,99874.00
2018-04-09T08:40:05.519Z,99880.78
2018-04-09T08:42:33.512Z,99870.67
2018-04-09T08:45:08.196Z,99869.08
2018-04-09T08:47:36.222Z,99867.66
2018-04-09T08:50:05.879Z,99864.95
2018-04-09T08:52:33.900Z,99860.71
2018-04-09T08:55:08.249Z,99856.74
2018-04-09T08:57:36.553Z,99861.25
2018-04-09T09:00:06.019Z,99850.39
2018-04-09T09:02:34.053Z,99845.19
2018-04-09T09:05:05.617Z,99850.98
2018-04-09T09:07:33.626Z,99840.63
2018-04-09T09:10:08.087Z,99831.70
2018-04-09T09:12:36.100Z,99831.25
2018-04-09T09:15:08.237Z,99825.63
2018-04-09T09:17:36.249Z,99825.13
2018-04-09T09:20:07.706Z,99831.22
2018-04-09T09:22:35.729Z,99832.66
2018-04-09T09:25:06.673Z,99823.99
2018-04-09T09:27:34.708Z,99825.25
2018-04-09T09:30:09.042Z,99823.38
2018-04-09T09:32:37.295Z,99826.25
2018-04-09T09:35:06.665Z,99822.02
2018-04-09T09:37:35.272Z,99826.65
2018-04-09T09:40:06.056Z,99814.91
2018-04-09T09:42:34.090Z,99809.25
2018-04-09T09:45:08.716Z,99804.24
2018-04-09T09:47:36.746Z,99800.75
2018-04-09T09:50:06.401Z,99806.86
2018-04-09T09:52:35.062Z,99805.81
2018-04-09T09:55:06.897Z,99803.66
2018-04-09T09:57:34.924Z,99807.19
2018-04-09T10:00:05.844Z,99805.75
2018-04-09T10:02:33.919Z,99792.44
2018-04-09T10:05:05.632Z,99791.11
2018-04-09T10:07:33.771Z,99789.30
2018-04-09T10:10:08.236Z,99795.11
2018-04-09T10:12:36.472Z,99791.10
2018-04-09T10:15:06.207Z,99794.56
2018-04-09T10:17:34.282Z,99802.01
2018-04-09T10:20:05.972Z,99795.59
2018-04-09T10:22:34.350Z,99793.78
2018-04-09T10:25:06.244Z,99797.70
2018-04-09T10:27:34.323Z,99791.12
2018-04-09T10:30:05.710Z,99787.61
2018-04-09T10:32:33.901Z,99792.05
2018-04-09T10:35:05.252Z,99789.85
2018-04-09T10:37:33.283Z,99785.18
2018-04-09T10:40:08.267Z,99787.47
2018-04-09T10:42:36.284Z,99780.45
2018-04-09T10:45:05.831Z,99775.05
2018-04-09T10:47:33.874Z,99779.45
2018-04-09T10:50:08.377Z,99781.50
2018-04-09T10:52:36.415Z,99773.17
2018-04-09T10:55:06.152Z,99763.45
2018-04-09T10:57:34.836Z,99757.72
2018-04-09T11:00:06.446Z,99755.09
2018-04-09T11:02:34.958Z,99745.62
2018-04-09T11:05:06.606Z,99735.80
2018-04-09T11:07:34.617Z,99733.44
2018-04-09T11:10:09.505Z,99728.42
2018-04-09T11:12:37.537Z,99729.31
2018-04-09T11:15:06.400Z,99721.50
2018-04-09T11:17:34.404Z,99721.61
2018-04-09T11:20:08.027Z,99710.14
2018-04-09T11:22:36.039Z,99710.57
2018-04-09T11:25:07.495Z,99708.08
2018-04-09T11:27:35.515Z,99708.12
2018-04-09T11:30:06.998Z,99706.95
2018-04-09T11:32:35.001Z,99703.14
2018-04-09T11:35:06.028Z,99692.41
2018-04-09T11:37:34.044Z,99700.16
2018-04-09T11:40:07.442Z,99707.23
2018-04-09T11:42:35.471Z,99701.66
2018-04-09T11:45:06.447Z,99701.08
2018-04-09T11:47:34.669Z,99701.86
2018-04-09T11:50:06.138Z,99695.43
2018-04-09T11:52:34.185Z,99693.84
2018-04-09T11:55:08.829Z,99691.58
2018-04-09T11:57:37.484Z,99691.95
2018-04-09T12:00:06.203Z,99684.89
2018-04-09T12:02:34.226Z,99679.44
2018-04-09T12:05:08.869Z,99682.10
2018-04-09T12:07:37.123Z,99685.34
2018-04-09T12:10:06.693Z,99680.80
2018-04-09T12:12:34.728Z,99683.95
2018-04-09T12:15:09.482Z,99674.41
2018-04-09T12:17:37.726Z,99672.41
2018-04-09T12:20:06.621Z,99674.85
2018-04-09T12:22:34.651Z,99666.97
2018-04-09T12:25:05.880Z,99656.52
2018-04-09T12:27:33.915Z,99660.73
2018-04-09T12:30:08.898Z,99660.34
2018-04-09T12:32:36.926Z,99656.70
2018-04-09T12:35:06.297Z,99658.73
2018-04-09T12:37:34.607Z,99653.61
2018-04-09T12:40:05.803Z,99646.59
2018-04-09T12:42:33.871Z,99646.42
2018-04-09T12:45:11.824Z,99646.52
2018-04-09T12:47:40.079Z,99641.77
2018-04-09T12:50:08.089Z,99633.45
2018-04-09T12:52:36.367Z,99630.01
2018-04-09T12:55:05.967Z,99624.56
2018-04-09T12:57:34.013Z,99628.08
2018-04-09T13:00:08.438Z,99619.70
2018-04-09T13:02:36.473Z,99618.77
2018-04-09T13:05:07.738Z,99619.45
2018-04-09T13:07:35.770Z,99616.84
2018-04-09T13:10:09.230Z,99614.16
2018-04-09T13:12:37.994Z,99606.20
2018-04-09T13:15:06.862Z,99600.97
2018-04-09T13:17:34.866Z,99595.98
2018-04-09T13:20:06.097Z,99596.36
2018-04-09T13:22:34.116Z,99597.17
2018-04-09T13:25:05.315Z,99583.88
2018-04-09T13:27:33.841Z,99587.09
2018-04-09T13:30:05.742Z,99578.67
2018-04-09T13:32:34.207Z,99574.03
2018-04-09T13:35:05.823Z,99567.76
2018-04-09T13:37:33.865Z,99565.11
2018-04-09T13:40:08.991Z,99565.59
2018-04-09T13:42:37.025Z,99565.89
2018-04-09T13:45:06.865Z,99555.25
2018-04-09T13:47:39.160Z,99551.50
2018-04-09T13:50:07.138Z,99548.98
2018-04-09T13:52:35.745Z,99540.84
2018-04-09T13:55:07.251Z,99542.84
2018-04-09T13:57:35.282Z,99532.98
2018-04-09T14:00:06.706Z,99528.19
2018-04-09T14:02:34.737Z,99527.70
2018-04-09T14:05:09.573Z,99523.20
2018-04-09T14:07:37.620Z,99523.95
2018-04-09T14:10:06.149Z,99522.92
2018-04-09T14:12:34.188Z,99515.77
2018-04-09T14:15:05.622Z,99515.56
2018-04-09T14:17:33.974Z,99513.34
2018-04-09T14:20:08.342Z,99508.59
2018-04-09T14:22:36.382Z,99499.02
2018-04-09T14:25:07.417Z,99504.78
2018-04-09T14:27:36.025Z,99501.27
2018-04-09T14:30:07.479Z,99493.36
2018-04-09T14:32:35.498Z,99499.15
2018-04-09T14:35:07.109Z,99494.47
2018-04-09T14:37:35.157Z,99492.13
2018-04-09T14:40:06.402Z,99491.88
2018-04-09T14:42:34.443Z,99490.80
2018-04-09T14:45:06.020Z,99482.92
2018-04-09T14:47:34.206Z,99478.69
2018-04-09T14:50:05.967Z,99481.38
2018-04-09T14:52:33.973Z,99476.45
2018-04-09T14:55:08.465Z,99481.31
2018-04-09T14:57:36.500Z,99474.11
2018-04-09T15:00:06.128Z,99471.22
2018-04-09T15:02:34.346Z,99474.97
2018-04-09T15:05:05.722Z,99467.97
2018-04-09T15:07:33.879Z,99470.52
2018-04-09T15:10:05.071Z,99465.22
2018-04-09T15:12:33.355Z,99462.14
2018-04-09T15:15:04.531Z,99467.33
2018-04-09T15:17:32.575Z,99466.27
2018-04-09T15:20:00.614Z,99437.86
2018-04-09T15:22:34.229Z,99462.94
2018-04-09T15:25:06.302Z,99463.58
2018-04-09T15:27:34.318Z,99455.08
2018-04-09T15:30:05.756Z,99456.80
2018-04-09T15:32:33.753Z,99453.25
2018-04-09T15:35:05.437Z,99455.55
2018-04-09T15:37:33.471Z,99454.42
2018-04-09T15:40:04.556Z,99444.86
2018-04-09T15:42:32.604Z,99444.75
2018-04-09T15:45:02.430Z,99440.52
2018-04-09T15:47:32.096Z,99447.98
2018-04-09T15:50:00.344Z,99441.55
2018-04-09T15:52:34.518Z,99446.86
2018-04-09T15:55:06.548Z,99442.58
2018-04-09T15:57:34.601Z,99441.96
2018-04-09T16:00:06.018Z,99436.36
2018-04-09T16:02:34.048Z,99440.32
2018-04-09T16:05:05.426Z,99439.50
2018-04-09T16:07:39.250Z,99441.17
2018-04-09T16:10:07.258Z,99437.13
2018-04-09T16:12:35.279Z,99440.23
2018-04-09T16:15:06.386Z,99444.56
2018-04-09T16:17:46.046Z,99434.14
2018-04-09T16:20:14.817Z,99439.54
2018-04-09T16:22:42.847Z,99442.73
2018-04-09T16:25:11.752Z,99445.98
2018-04-09T16:27:39.807Z,99441.59
2018-04-09T16:30:07.826Z,99446.05
2018-04-09T16:32:35.844Z,99435.84
2018-04-09T16:35:07.361Z,99436.26
2018-04-09T16:37:35.434Z,99436.55
2018-04-09T16:40:06.590Z,99437.42
2018-04-09T16:42:34.635Z,99432.52
2018-04-09T16:45:06.164Z,99430.11
2018-04-09T16:47:34.296Z,99426.42
2018-04-09T16:50:08.939Z,99426.56
2018-04-09T16:52:41.108Z,99421.20
2018-04-09T16:55:09.198Z,99429.60
2018-04-09T16:57:38.335Z,99422.56
2018-04-09T17:00:07.554Z,99428.46
2018-04-09T17:02:35.566Z,99433.80
2018-04-09T17:05:06.472Z,99432.71
2018-04-09T17:07:34.479Z,99432.80
2018-04-09T17:10:09.051Z,99424.44
2018-04-09T17:12:37.075Z,99429.16
2018-04-09T17:15:06.752Z,99424.94
2018-04-09T17:17:34.794Z,99426.97
2018-04-09T17:20:06.432Z,99421.36
2018-04-09T17:22:35.262Z,99424.17
2018-04-09T17:25:06.407Z,99421.59
2018-04-09T17:27:34.428Z,99420.52
2018-04-09T17:30:09.566Z,99419.56
2018-04-09T17:32:37.600Z,99422.77
2018-04-09T17:35:06.648Z,99415.48
2018-04-09T17:37:34.696Z,99418.09
2018-04-09T17:40:05.911Z,99416.50
2018-04-09T17:42:33.960Z,99421.99
2018-04-09T17:45:05.245Z,99417.97
2018-04-09T17:47:33.311Z,99417.59
2018-04-09T17:50:06.225Z,99421.88
2018-04-09T17:52:34.245Z,99416.76
2018-04-09T17:55:08.668Z,99416.45
2018-04-09T17:57:36.732Z,99416.84
2018-04-09T18:00:06.190Z,99419.41
2018-04-09T18:02:34.221Z,99413.02
2018-04-09T18:05:05.452Z,99420.23
2018-04-09T18:07:33.497Z,99419.16
2018-04-09T18:10:07.845Z,99423.90
2018-04-09T18:12:35.906Z,99423.81
2018-04-09T18:15:07.161Z,99426.50
2018-04-09T18:17:35.209Z,99425.11
2018-04-09T18:20:06.746Z,99424.48
2018-04-09T18:22:35.037Z,99426.91
2018-04-09T18:25:06.290Z,99432.91
2018-04-09T18:27:34.299Z,99427.16
2018-04-09T18:30:09.267Z,99425.61
2018-04-09T18:32:37.287Z,99429.05
2018-04-09T18:35:05.879Z,99433.08
2018-04-09T18:37:34.103Z,99435.79
2018-04-09T18:40:05.428Z,99447.67
2018-04-09T18:42:33.427Z,99445.19
2018-04-09T18:45:07.834Z,99448.03
2018-04-09T18:47:35.831Z,99442.07
2018-04-09T18:50:05.843Z,99442.84
2018-04-09T18:52:33.879Z,99442.04
2018-04-09T18:55:05.415Z,99448.33
2018-04-09T18:57:33.451Z,99444.06
2018-04-09T19:00:07.855Z,99453.06
2018-04-09T19:02:35.904Z,99450.31
2018-04-09T19:05:05.784Z,99449.86
2018-04-09T19:07:33.819Z,99452.78
2018-04-09T19:10:06.040Z,99456.66
2018-04-09T19:12:34.065Z,99454.64
2018-04-09T19:15:05.227Z,99453.84
2018-04-09T19:17:33.245Z,99453.63
2018-04-09T19:20:07.751Z,99460.01
2018-04-09T19:22:35.762Z,99453.75
2018-04-09T19:25:07.615Z,99455.60
2018-04-09T19:27:35.684Z,99461.14
2018-04-09T19:30:07.363Z,99456.83
2018-04-09T19:32:35.385Z,99463.47
2018-04-09T19:35:08.537Z,99463.08
2018-04-09T19:37:42.354Z,99460.15
2018-04-09T19:40:16.778Z,99458.88
2018-04-09T19:42:46.203Z,99463.33
2018-04-09T19:45:14.960Z,99449.95
2018-04-09T19:47:43.210Z,99459.33
2018-04-09T19:50:12.311Z,99465.55
2018-04-09T19:52:45.533Z,99470.05
2018-04-09T19:55:13.934Z,99470.56
2018-04-09T19:57:42.516Z,99468.73
2018-04-09T20:00:11.287Z,99468.63
2018-04-09T20:02:39.778Z,99475.15
2018-04-09T20:05:12.208Z,99477.88
2018-04-09T20:07:40.898Z,99473.97
2018-04-09T20:10:10.319Z,99476.30
2018-04-09T20:12:39.336Z,99474.30
2018-04-09T20:15:07.949Z,99480.08
2018-04-09T20:17:36.444Z,99479.42
2018-04-09T20:20:07.093Z,99477.64
2018-04-09T20:22:36.124Z,99479.76
2018-04-09T20:25:08.267Z,99481.38
2018-04-09T20:27:37.092Z,99480.59
2018-04-09T20:30:06.557Z,99478.84
2018-04-09T20:32:35.271Z,99480.73
2018-04-09T20:35:07.183Z,99486.33
2018-04-09T20:37:36.351Z,99484.50
2018-04-09T20:40:06.774Z,99478.08
2018-04-09T20:42:36.132Z,99484.48
2018-04-09T20:45:05.977Z,99485.92
2018-04-09T20:47:34.640Z,99489.70
2018-04-09T20:50:06.214Z,99481.66
2018-04-09T20:52:34.440Z,99478.48
2018-04-09T20:55:09.309Z,99478.38
2018-04-09T20:57:37.319Z,99478.78
2018-04-09T21:00:06.653Z,99480.11
2018-04-09T21:02:34.651Z,99476.50
2018-04-09T21:05:05.998Z,99479.72
2018-04-09T21:07:34.019Z,99475.89
2018-04-09T21:10:05.571Z,99476.59
2018-04-09T21:12:33.596Z,99471.03
2018-04-09T21:15:07.984Z,99479.41
2018-04-09T21:17:36.011Z,99487.44
2018-04-09T21:20:08.076Z,99481.71
2018-04-09T21:22:36.154Z,99487.66
2018-04-09T21:25:05.722Z,99492.91
2018-04-09T21:27:33.759Z,99497.34
2018-04-09T21:30:08.142Z,99503.10
2018-04-09T21:32:36.166Z,99506.38
2018-04-09T21:35:07.515Z,99511.32
2018-04-09T21:37:35.539Z,99506.48
2018-04-09T21:40:06.876Z,99513.08
2018-04-09T21:42:34.978Z,99518.33
2018-04-09T21:45:05.722Z,99522.05
2018-04-09T21:47:33.775Z,99521.94
2018-04-09T21:50:08.340Z,99522.69
2018-04-09T21:52:36.362Z,99514.02
2018-04-09T21:55:06.138Z,99521.73
2018-04-09T21:57:34.176Z,99515.89
2018-04-09T22:00:05.249Z,99527.11
2018-04-09T22:02:33.286Z,99525.66
2018-04-09T22:05:04.986Z,99521.03
2018-04-09T22:07:33.891Z,99524.84
2018-04-09T22:10:05.240Z,99530.59
2018-04-09T22:12:33.272Z,99531.30
2018-04-09T22:15:04.538Z,99535.93
2018-04-09T22:17:32.567Z,99535.72
2018-04-09T22:20:02.015Z,99541.89
2018-04-09T22:22:31.638Z,99546.41
2018-04-09T22:24:59.659Z,99543.01
2018-04-09T22:27:27.711Z,99549.28
2018-04-09T22:29:55.751Z,99540.53
2018-04-09T22:32:23.776Z,99539.80
2018-04-09T22:34:51.848Z,99541.77
2018-04-09T22:37:19.890Z,99550.17
2018-04-09T22:39:47.930Z,99547.91
2018-04-09T22:42:15.960Z,99548.83
2018-04-09T22:44:44.034Z,99537.41
2018-04-09T22:47:12.039Z,99547.57
2018-04-09T22:49:40.102Z,99529.97
2018-04-09T22:52:08.115Z,99537.48
2018-04-09T22:54:36.380Z,99537.75
2018-04-09T22:57:04.386Z,99543.28
2018-04-09T22:59:32.404Z,99542.48
2018-04-09T23:02:00.412Z,99540.84
2018-04-09T23:04:28.434Z,99541.82
2018-04-09T23:06:56.988Z,99548.70
2018-04-09T23:09:25.166Z,99548.80
2018-04-09T23:11:53.237Z,99561.03
2018-04-09T23:14:21.279Z,99557.13
2018-04-09T23:16:49.306Z,99563.14
2018-04-09T23:19:17.311Z,99568.05
2018-04-09T23:21:45.343Z,99573.76
2018-04-09T23:24:13.449Z,99578.48
2018-04-09T23:26:41.459Z,99579.21
2018-04-09T23:29:10.103Z,99583.52
2018-04-09T23:31:38.147Z,99584.76
2018-04-09T23:34:06.312Z,99583.56
2018-04-09T23:36:34.352Z,99586.48
2018-04-09T23:39:02.362Z,99581.53
2018-04-09T23:41:30.396Z,99576.59
2018-04-09T23:43:58.419Z,99584.74
2018-04-09T23:46:26.433Z,99576.77
2018-04-09T23:48:55.301Z,99572.48
2018-04-09T23:51:23.339Z,99576.59
2018-04-09T23:53:51.378Z,99578.89
2018-04-09T23:56:19.586Z,99578.09
2018-04-09T23:58:47.599Z,99573.25
